Weather at Cuneo International Airport

Public forecast

Using degrees Celsius for public forecast. Weather courtesy of forecast.io.

Current aviation weather report (METAR) for Cuneo International Airport

Retrieved 2020/10/23 02:20 UTC (25 minutes ago):

LIMZ 230220Z AUTO VRB01KT 0600 0200SW R21/1100U -RA FG VV002 11/11 Q1021

Aviation forecast (TAF) for Cuneo International Airport

Retrieved 2020-10-23 00:21 UTC (2 hours ago):

TAF LIMZ 222300Z 2300/2324 VRB05KT 2000 BR BKN040 TEMPO 2300/2304 0600 BCFG TEMPO 2304/2308 RA BECMG 2308/2311 6000 BECMG 2318/2320 1200 BCFG TEMPO 2320/2324 0500 FG BKN005